Time;durP1;ratioP1;P1;durP2;ratioP2;P2;SDS_P1;SDS_P2;PMS_P1;PMS_P2;Temp;Humidity;BMP_temperature;BMP_pressure;BME280_temperature;BME280_humidity;BME280_pressure;Samples;Min_cycle;Max_cycle;Signal;HPM_P1;HPM_P2
2021/05/19 00:00:39;;;;;;;8.15;6.30;;;7.60;99.90;;;6.79;91.50;97583.69;5070411;28;20044;-71
2021/05/19 00:03:06;;;;;;;9.63;6.93;;;7.50;99.90;;;6.68;92.96;97583.13;5070070;28;20041;-71
2021/05/19 00:05:33;;;;;;;13.13;8.55;;;7.50;99.90;;;6.62;93.63;97584.16;5078540;28;20110;-70
2021/05/19 00:08:00;;;;;;;12.38;8.10;;;7.50;99.90;;;6.50;94.20;97584.50;5088596;28;20105;-71
2021/05/19 00:10:27;;;;;;;13.35;8.88;;;7.40;99.90;;;6.43;94.77;97580.38;5071202;28;20070;-70
2021/05/19 00:12:54;;;;;;;15.50;9.05;;;7.30;99.90;;;6.24;96.07;97592.88;5069331;28;20056;-70
2021/05/19 00:15:21;;;;;;;16.65;9.80;;;7.30;99.90;;;6.14;97.14;97586.28;5069877;28;20052;-70
2021/05/19 00:17:48;;;;;;;16.35;9.68;;;7.30;99.90;;;5.95;97.71;97589.28;5070162;28;20480;-70
2021/05/19 00:20:16;;;;;;;10.70;7.20;;;7.20;99.90;;;6.16;95.74;97585.34;5089139;28;20047;-70
2021/05/19 00:22:43;;;;;;;11.48;7.05;;;7.10;99.90;;;6.16;94.63;97584.47;5086547;28;20044;-70
2021/05/19 00:25:11;;;;;;;18.02;8.98;;;7.00;99.90;;;5.84;97.07;97578.38;5082550;28;20502;-72
2021/05/19 00:27:38;;;;;;;10.27;6.63;;;6.90;99.90;;;6.13;95.58;97585.41;5089763;28;20105;-71
2021/05/19 00:30:07;;;;;;;11.73;6.97;;;7.00;99.90;;;6.12;95.67;97582.88;5089918;28;20474;-71
2021/05/19 00:32:34;;;;;;;8.73;5.88;;;7.00;99.90;;;6.23;94.49;97578.31;5088093;28;20055;-72
2021/05/19 00:35:02;;;;;;;12.18;8.20;;;7.10;99.90;;;6.16;95.13;97574.19;5086486;28;20044;-72
2021/05/19 00:37:29;;;;;;;11.43;7.72;;;7.10;99.90;;;5.98;96.16;97583.22;5076413;28;20032;-70
2021/05/19 00:39:56;;;;;;;15.70;8.88;;;7.20;99.90;;;6.01;97.03;97583.16;5085019;28;20577;-71
2021/05/19 00:42:23;;;;;;;11.45;8.10;;;7.20;99.90;;;6.28;95.46;97579.88;5087079;28;20479;-71
2021/05/19 00:44:50;;;;;;;11.40;6.40;;;7.30;99.90;;;6.38;94.58;97572.75;5078756;28;20118;-71
2021/05/19 00:47:41;;;;;;;10.45;7.63;;;7.30;99.90;;;6.44;93.81;97569.19;5071628;28;20500;-71
2021/05/19 00:50:20;;;;;;;15.10;9.48;;;7.40;99.90;;;6.18;95.24;97573.28;5079230;28;20044;-71
2021/05/19 00:52:47;;;;;;;13.75;9.15;;;7.30;99.90;;;6.41;94.97;97569.25;5074850;28;20097;-71
2021/05/19 00:55:15;;;;;;;17.67;11.48;;;7.30;99.90;;;6.26;94.90;97570.50;5087965;28;20054;-70
2021/05/19 00:57:43;;;;;;;13.68;8.07;;;7.30;99.90;;;6.41;93.88;97574.41;5081535;28;20071;-70
2021/05/19 01:00:15;;;;;;;13.35;8.23;;;7.20;99.90;;;6.23;94.39;97574.00;5093720;28;20098;-70
2021/05/19 01:02:42;;;;;;;12.90;8.40;;;7.20;99.90;;;6.34;93.86;97576.31;5085165;28;20044;-71
2021/05/19 01:05:28;;;;;;;12.07;8.80;;;7.20;99.90;;;6.37;93.52;97573.66;5079591;28;20315;-71
2021/05/19 01:10:41;;;;;;;11.10;7.93;;;7.20;99.90;;;6.29;92.45;97572.97;5077556;28;20057;-71
2021/05/19 01:13:08;;;;;;;13.48;7.90;;;7.20;99.90;;;6.32;92.59;97575.50;5093522;28;20196;-71
2021/05/19 01:15:36;;;;;;;10.77;7.35;;;7.20;99.90;;;6.28;92.74;97573.88;5091250;28;20044;-71
2021/05/19 01:18:06;;;;;;;13.50;7.88;;;7.20;99.90;;;6.23;92.71;97576.56;5091828;28;20115;-71
2021/05/19 01:20:34;;;;;;;11.90;8.32;;;7.20;99.90;;;6.18;92.61;97575.84;5085932;28;20036;-71
2021/05/19 01:23:04;;;;;;;11.40;7.32;;;7.10;99.90;;;6.17;92.20;97579.31;5091779;28;20480;-71
2021/05/19 01:25:32;;;;;;;11.68;8.18;;;7.10;99.90;;;6.21;92.01;97574.94;5080656;28;20047;-71
2021/05/19 01:28:01;;;;;;;11.38;7.50;;;7.00;99.90;;;6.16;91.56;97580.19;5084276;28;20056;-71
2021/05/19 01:30:30;;;;;;;11.98;7.70;;;7.00;99.90;;;6.10;91.83;97572.59;5073127;28;20102;-71
2021/05/19 01:32:57;;;;;;;10.27;7.20;;;7.00;99.90;;;6.12;91.83;97578.56;5074220;28;20052;-71
2021/05/19 01:35:24;;;;;;;10.95;7.93;;;7.00;99.90;;;6.18;92.22;97577.56;5082796;28;20085;-71
2021/05/19 01:37:52;;;;;;;11.52;7.30;;;6.90;99.90;;;6.18;91.80;97569.81;5071205;28;20128;-71
2021/05/19 01:40:22;;;;;;;13.23;8.38;;;7.00;99.90;;;5.92;93.88;97576.44;5081356;28;20044;-70
2021/05/19 01:42:51;;;;;;;16.05;9.20;;;7.00;99.90;;;5.97;94.17;97574.63;5079165;28;20507;-71
2021/05/19 01:45:24;;;;;;;15.52;8.40;;;6.90;99.90;;;5.86;94.98;97569.72;5082672;28;20051;-71
2021/05/19 01:47:52;;;;;;;17.77;11.18;;;6.90;99.90;;;5.68;96.11;97580.47;5085197;28;20051;-70
2021/05/19 01:50:27;;;;;;;12.05;8.50;;;6.90;99.90;;;5.94;94.76;97573.84;5083158;28;20524;-71
2021/05/19 01:52:57;;;;;;;15.02;9.68;;;6.80;99.90;;;5.90;94.91;97577.38;5070731;28;20496;-71
2021/05/19 01:55:26;;;;;;;19.42;10.20;;;6.80;99.90;;;5.97;94.60;97578.94;5083852;28;20036;-71
2021/05/19 01:57:54;;;;;;;20.83;13.10;;;6.80;99.90;;;5.71;96.46;97579.53;5086092;28;20834;-71
2021/05/19 02:00:24;;;;;;;17.85;11.43;;;6.80;99.90;;;5.87;96.31;97586.84;5071052;28;20041;-71
2021/05/19 02:03:05;;;;;;;20.30;12.00;;;6.90;99.90;;;5.92;95.64;97585.91;5076579;28;20073;-71
2021/05/19 02:05:34;;;;;;;24.02;13.52;;;6.80;99.90;;;5.75;97.09;97596.63;5073602;28;20523;-71
2021/05/19 02:08:05;;;;;;;18.23;11.70;;;6.90;99.90;;;5.75;97.47;97589.72;5070307;28;20085;-71
2021/05/19 02:10:33;;;;;;;23.50;13.90;;;6.90;99.90;;;5.64;98.40;97591.72;5081260;28;20260;-71
2021/05/19 02:13:06;;;;;;;19.92;12.63;;;6.90;99.90;;;5.64;98.48;97595.13;5084073;28;20044;-71
2021/05/19 02:15:34;;;;;;;;;;;6.90;99.90;;;5.67;97.83;97586.47;5088291;28;20090;-70
2021/05/19 02:18:02;;;;;;;22.23;14.30;;;6.90;99.90;;;5.60;98.24;97590.91;5059648;28;20341;-70
2021/05/19 02:20:29;;;;;;;27.83;16.98;;;6.80;99.90;;;5.71;98.44;97588.09;5079116;28;20369;-70
2021/05/19 02:22:57;;;;;;;26.73;15.98;;;6.80;99.90;;;5.74;98.13;97592.34;5081546;28;20043;-70
2021/05/19 02:25:24;;;;;;;32.05;17.52;;;6.80;99.90;;;5.55;99.29;97587.59;5080513;28;20427;-71
2021/05/19 02:27:52;;;;;;;27.10;17.35;;;6.80;99.90;;;5.72;98.96;97589.78;5077046;28;20049;-71
2021/05/19 02:30:21;;;;;;;28.42;17.00;;;6.80;99.90;;;5.72;99.50;97591.53;5085375;28;20048;-71
2021/05/19 02:32:49;;;;;;;31.35;18.52;;;6.90;99.90;;;5.98;97.57;97584.06;5069100;28;20036;-71
2021/05/19 02:35:18;;;;;;;31.15;16.88;;;6.90;99.90;;;5.88;97.47;97585.13;5088115;28;20036;-70
2021/05/19 02:37:45;;;;;;;29.08;15.60;;;6.90;99.90;;;6.02;96.91;97584.81;5085410;28;20404;-70
2021/05/19 02:40:15;;;;;;;27.15;16.35;;;7.00;99.90;;;5.98;96.56;97589.22;5082049;28;20530;-70
2021/05/19 02:42:44;;;;;;;36.30;18.58;;;7.00;99.90;;;5.91;96.75;97577.34;5069867;28;20032;-70
2021/05/19 02:45:12;;;;;;;27.75;16.95;;;7.00;99.90;;;5.89;96.53;97594.56;5070525;28;20041;-70
2021/05/19 02:47:39;;;;;;;34.28;18.77;;;6.90;99.90;;;5.71;98.19;97585.53;5070560;28;20138;-70
2021/05/19 02:50:07;;;;;;;39.92;20.88;;;6.90;99.90;;;5.73;98.72;97586.34;5079088;28;20044;-70
2021/05/19 02:52:34;;;;;;;37.08;19.45;;;6.90;99.90;;;5.63;99.33;97582.28;5071463;28;20106;-70
2021/05/19 02:55:02;;;;;;;40.65;21.70;;;6.90;99.90;;;5.62;99.32;97580.59;5085133;28;20063;-71
2021/05/19 02:57:29;;;;;;;28.83;16.60;;;6.90;99.90;;;5.72;99.33;97581.22;5085671;28;20037;-70
2021/05/19 02:59:56;;;;;;;49.13;22.27;;;6.90;99.90;;;5.64;99.45;97587.41;5087227;28;20485;-71
2021/05/19 03:02:23;;;;;;;46.55;23.00;;;6.90;99.90;;;5.74;98.51;97589.75;5080550;28;20028;-71
2021/05/19 03:04:51;;;;;;;38.88;19.48;;;6.90;99.90;;;5.79;98.42;97591.38;5087853;28;20079;-70
2021/05/19 03:07:18;;;;;;;45.03;20.25;;;6.90;99.90;;;5.60;99.74;97595.22;5088666;28;20101;-70
2021/05/19 03:09:45;;;;;;;42.85;19.60;;;6.90;99.90;;;5.71;99.11;97593.25;5070802;28;20048;-70
2021/05/19 03:12:11;;;;;;;64.93;23.95;;;6.90;99.90;;;5.66;98.96;97598.50;5081799;28;20077;-71
2021/05/19 03:14:38;;;;;;;48.20;18.98;;;6.80;99.90;;;5.58;100.00;97599.56;5075737;28;20040;-70
2021/05/19 03:17:05;;;;;;;84.70;24.90;;;6.80;99.90;;;5.49;100.00;97605.75;5084992;28;20373;-70
2021/05/19 03:19:32;;;;;;;63.67;22.20;;;6.80;99.90;;;5.62;100.00;97608.91;5077625;28;20097;-70
2021/05/19 03:21:59;;;;;;;34.83;16.27;;;6.80;99.90;;;5.66;100.00;97606.25;5085672;28;20048;-71
2021/05/19 03:24:26;;;;;;;64.13;18.60;;;6.80;99.90;;;5.61;100.00;97609.78;5083108;28;20238;-70
2021/05/19 03:26:53;;;;;;;211.02;26.02;;;6.80;99.90;;;5.45;100.00;97610.13;5087019;28;20044;-71
2021/05/19 03:29:20;;;;;;;220.88;26.60;;;6.80;99.90;;;5.43;100.00;97611.91;5086194;28;20032;-70
2021/05/19 03:31:47;;;;;;;166.43;26.63;;;6.80;99.90;;;5.53;100.00;97609.13;5087241;28;20094;-71
2021/05/19 03:34:15;;;;;;;128.90;22.98;;;6.80;99.90;;;5.58;100.00;97615.00;5080941;28;20044;-70
2021/05/19 03:36:43;;;;;;;216.10;26.65;;;6.80;99.90;;;5.54;100.00;97610.81;5083089;28;20110;-71
2021/05/19 03:39:12;;;;;;;92.07;20.98;;;6.80;99.90;;;5.61;100.00;97610.66;5083030;28;20495;-70
2021/05/19 03:41:40;;;;;;;103.45;21.10;;;6.80;99.90;;;5.66;100.00;97610.53;5072952;28;20063;-70
2021/05/19 03:44:08;;;;;;;84.65;20.92;;;6.80;99.90;;;5.59;100.00;97612.41;5080413;28;20399;-71
2021/05/19 03:46:35;;;;;;;64.85;19.98;;;6.80;99.90;;;5.66;100.00;97619.13;5070736;28;20371;-70
2021/05/19 03:49:04;;;;;;;136.57;21.90;;;6.90;99.90;;;5.73;100.00;97616.41;5081354;28;20036;-70
2021/05/19 03:51:32;;;;;;;50.65;17.88;;;6.80;99.90;;;5.67;100.00;97622.53;5073869;28;20451;-70
2021/05/19 03:53:59;;;;;;;55.83;19.65;;;6.80;99.90;;;5.81;100.00;97635.09;5077753;28;20048;-70
2021/05/19 03:56:26;;;;;;;159.13;23.10;;;6.80;99.90;;;5.71;100.00;97629.31;5083487;28;20119;-70
2021/05/19 03:58:54;;;;;;;62.25;17.85;;;6.90;99.90;;;5.83;100.00;97626.44;5067491;28;20044;-71
2021/05/19 04:01:21;;;;;;;182.38;20.35;;;6.90;99.90;;;5.87;100.00;97635.81;5088266;28;20055;-70
2021/05/19 04:03:51;;;;;;;260.20;25.38;;;6.90;99.90;;;5.62;100.00;97627.78;5076665;28;20446;-70
2021/05/19 04:06:23;;;;;;;254.73;26.77;;;6.90;99.90;;;5.64;100.00;97630.34;5080126;28;20048;-70
2021/05/19 04:08:52;;;;;;;324.75;31.00;;;6.90;99.90;;;5.61;100.00;97636.41;5078307;28;20044;-70
2021/05/19 04:11:19;;;;;;;206.25;25.42;;;7.00;99.90;;;5.68;100.00;97631.09;5079893;28;20055;-70
2021/05/19 04:13:46;;;;;;;294.48;27.40;;;7.00;99.90;;;5.64;100.00;97630.34;5077077;28;20109;-70
2021/05/19 04:16:13;;;;;;;269.83;28.30;;;7.00;99.90;;;5.71;100.00;97631.88;5086661;28;20510;-70
2021/05/19 04:18:40;;;;;;;162.20;22.15;;;7.00;99.90;;;5.54;100.00;97633.97;5076803;28;20044;-70
2021/05/19 04:21:08;;;;;;;78.70;17.23;;;7.10;99.90;;;5.73;100.00;97627.56;5088194;28;20488;-70
2021/05/19 04:23:35;;;;;;;113.68;22.45;;;7.10;99.90;;;5.75;100.00;97636.09;5078251;28;20473;-70
2021/05/19 04:26:03;;;;;;;182.57;24.90;;;7.10;99.90;;;5.72;100.00;97638.72;5079397;28;20600;-70
2021/05/19 04:28:30;;;;;;;169.73;27.23;;;7.20;99.90;;;5.69;100.00;97638.78;5080002;28;20048;-70
2021/05/19 04:30:57;;;;;;;121.70;21.30;;;7.30;99.90;;;5.98;100.00;97637.34;5083206;28;20135;-71
2021/05/19 04:33:24;;;;;;;83.60;21.95;;;7.30;99.90;;;6.00;100.00;97644.16;5079231;28;20055;-70
2021/05/19 04:35:52;;;;;;;108.15;22.25;;;7.30;99.90;;;5.98;100.00;97638.19;5077247;28;20044;-70
2021/05/19 04:38:19;;;;;;;108.72;21.50;;;7.30;99.90;;;6.12;100.00;97629.28;5076588;28;20051;-70
2021/05/19 04:40:46;;;;;;;80.05;20.15;;;7.30;99.90;;;6.13;100.00;97639.53;5077571;28;20044;-70
2021/05/19 04:43:14;;;;;;;130.13;24.08;;;7.40;99.90;;;6.07;100.00;97643.13;5068660;28;20048;-71
2021/05/19 04:45:41;;;;;;;117.07;27.23;;;7.50;99.90;;;6.10;100.00;97649.91;5074945;28;20409;-71
2021/05/19 04:48:09;;;;;;;96.18;26.45;;;7.50;99.90;;;6.13;100.00;97646.41;5068098;28;20114;-71
2021/05/19 04:50:38;;;;;;;101.88;25.85;;;7.60;99.90;;;6.19;100.00;97647.13;5076239;28;20094;-71
2021/05/19 04:53:10;;;;;;;66.28;20.85;;;7.70;99.90;;;6.37;100.00;97643.25;5073210;28;20508;-71
2021/05/19 04:55:38;;;;;;;99.50;25.50;;;7.70;99.90;;;6.32;100.00;97645.09;5105091;28;20048;-71
2021/05/19 04:58:06;;;;;;;66.97;23.40;;;7.70;99.90;;;6.42;100.00;97654.28;5080212;28;20047;-70
2021/05/19 05:00:36;;;;;;;83.53;25.05;;;7.80;99.90;;;6.42;100.00;97654.28;5077809;28;20032;-70
2021/05/19 05:03:05;;;;;;;66.72;23.15;;;7.80;99.90;;;6.36;100.00;97661.34;5087241;28;20484;-70
2021/05/19 05:05:32;;;;;;;66.90;24.02;;;7.90;99.90;;;6.45;100.00;97666.25;5087642;28;20039;-71
2021/05/19 05:07:59;;;;;;;46.92;21.00;;;7.90;99.90;;;6.50;100.00;97667.00;5082518;28;20534;-70
2021/05/19 05:10:26;;;;;;;67.70;22.38;;;7.90;99.90;;;6.41;100.00;97668.09;5075995;28;20037;-71
2021/05/19 05:12:53;;;;;;;51.72;21.92;;;7.90;99.90;;;6.47;100.00;97661.91;5070330;28;20098;-71
2021/05/19 05:15:21;;;;;;;48.25;21.38;;;7.90;99.90;;;6.65;99.58;97670.94;5082511;28;20114;-71
2021/05/19 05:17:48;;;;;;;51.33;22.50;;;8.00;99.90;;;6.60;100.00;97667.63;5067077;28;20044;-70
2021/05/19 05:20:15;;;;;;;45.65;22.60;;;8.10;99.90;;;6.78;100.00;97674.88;5068471;28;20048;-71
2021/05/19 05:22:43;;;;;;;42.58;21.52;;;8.20;99.90;;;6.72;98.86;97677.63;5104981;28;20120;-71
2021/05/19 05:25:13;;;;;;;38.20;21.05;;;8.30;99.90;;;6.93;98.61;97670.22;5091721;28;20047;-71
2021/05/19 05:27:41;;;;;;;37.80;21.13;;;8.40;99.90;;;7.02;96.97;97664.78;5085246;28;20143;-70
2021/05/19 05:30:10;;;;;;;30.70;19.60;;;8.50;99.90;;;6.99;96.94;97672.63;5076318;28;20051;-70
2021/05/19 05:32:37;;;;;;;34.72;20.52;;;8.60;99.90;;;7.01;97.29;97671.69;5072436;28;20051;-71
2021/05/19 05:35:05;;;;;;;39.78;22.25;;;8.80;99.90;;;7.11;96.90;97678.28;5072370;28;20052;-71
2021/05/19 05:37:32;;;;;;;36.88;20.83;;;8.80;99.90;;;7.10;95.97;97670.63;5071971;28;20049;-71
2021/05/19 05:39:59;;;;;;;35.70;20.67;;;8.90;99.90;;;7.13;95.70;97670.53;5079546;28;20123;-70
2021/05/19 05:42:32;;;;;;;35.00;20.60;;;9.00;99.90;;;7.28;94.73;97674.44;5088943;28;20054;-71
2021/05/19 05:45:00;;;;;;;34.72;20.13;;;9.10;99.90;;;7.23;94.55;97684.88;5069942;28;20036;-70
2021/05/19 05:47:27;;;;;;;36.17;19.45;;;9.10;99.90;;;7.32;94.35;97676.88;5083476;28;20476;-71
2021/05/19 05:49:54;;;;;;;35.88;20.27;;;9.10;99.90;;;7.30;94.14;97675.22;5071117;28;20106;-71
2021/05/19 05:52:21;;;;;;;38.17;19.48;;;9.20;99.90;;;7.44;94.47;97683.44;5071285;28;20052;-71
2021/05/19 05:54:48;;;;;;;40.88;18.98;;;9.20;99.90;;;7.22;94.74;97692.66;5089397;28;20051;-71
2021/05/19 05:57:15;;;;;;;31.10;18.73;;;9.20;99.90;;;7.27;94.72;97691.63;5074351;28;20040;-71
2021/05/19 05:59:42;;;;;;;37.08;19.13;;;9.20;99.90;;;7.35;94.15;97699.19;5078325;28;20047;-71
2021/05/19 06:02:10;;;;;;;34.42;19.98;;;9.00;99.90;;;7.20;93.73;97694.44;5072096;28;20079;-71
2021/05/19 06:04:37;;;;;;;30.92;18.85;;;8.90;99.90;;;7.05;93.51;97701.72;5072159;28;20041;-70
2021/05/19 06:07:04;;;;;;;31.98;19.92;;;8.90;99.90;;;7.27;93.06;97704.53;5069356;28;20458;-70
2021/05/19 06:09:31;;;;;;;32.10;19.95;;;8.90;99.90;;;6.94;94.18;97700.31;5072629;28;20052;-71
2021/05/19 06:11:58;;;;;;;35.38;22.40;;;8.90;99.90;;;6.93;94.27;97701.16;5078733;28;20063;-71
2021/05/19 06:14:25;;;;;;;32.95;21.42;;;8.90;99.90;;;7.11;93.99;97709.28;5089297;28;20510;-71
2021/05/19 06:16:52;;;;;;;32.65;20.55;;;9.00;99.90;;;7.32;94.33;97707.88;5086325;28;20032;-71
2021/05/19 06:19:19;;;;;;;31.52;19.50;;;9.00;99.90;;;7.54;92.94;97705.50;5074365;28;20489;-71
2021/05/19 06:21:46;;;;;;;37.85;21.80;;;9.00;99.90;;;7.45;92.67;97717.84;5099823;28;20043;-71
2021/05/19 06:24:13;;;;;;;29.65;17.90;;;9.10;99.90;;;7.17;91.53;97720.34;5110084;27;20499;-70
2021/05/19 06:26:40;;;;;;;30.50;18.95;;;9.10;99.90;;;7.02;92.99;97717.25;5083344;28;20518;-70
2021/05/19 06:29:07;;;;;;;31.08;18.55;;;9.20;99.90;;;7.25;93.07;97713.22;5076548;28;20430;-71
2021/05/19 06:31:34;;;;;;;25.92;17.60;;;9.20;99.90;;;7.47;92.63;97716.06;5100544;28;20048;-71
2021/05/19 06:34:02;;;;;;;34.20;20.95;;;9.30;99.90;;;7.44;91.72;97718.75;5087759;28;20696;-70
2021/05/19 06:36:30;;;;;;;28.42;19.17;;;9.20;99.90;;;7.56;91.16;97720.13;5087155;28;20032;-71
2021/05/19 06:38:57;;;;;;;33.65;19.85;;;9.20;99.90;;;7.62;91.29;97718.22;5070853;28;20118;-71
2021/05/19 06:41:24;;;;;;;29.90;18.33;;;9.30;99.90;;;7.97;89.87;97713.75;5075486;28;20033;-71
2021/05/19 06:43:53;;;;;;;32.90;19.27;;;9.30;99.90;;;7.63;89.94;97719.91;5088610;28;20416;-71
2021/05/19 06:46:20;;;;;;;26.52;17.95;;;9.50;99.90;;;7.93;88.92;97707.81;5085763;28;20126;-71
2021/05/19 06:48:47;;;;;;;27.33;16.45;;;9.50;99.90;;;7.63;89.57;97721.66;5070350;28;20207;-71
2021/05/19 06:51:18;;;;;;;30.75;19.42;;;9.60;99.90;;;7.73;90.13;97725.66;5075035;28;20121;-72
2021/05/19 06:53:45;;;;;;;31.17;19.02;;;9.60;99.90;;;7.68;89.37;97725.78;5081424;28;20056;-71
2021/05/19 06:56:13;;;;;;;26.58;14.07;;;9.60;99.90;;;7.80;88.87;97722.03;5088416;28;20036;-71
2021/05/19 06:58:40;;;;;;;23.85;14.18;;;9.80;99.90;;;8.21;84.71;97725.09;5077027;28;20069;-71
2021/05/19 07:01:07;;;;;;;27.00;17.38;;;9.90;99.90;;;7.98;88.35;97728.38;5082752;28;20406;-71
2021/05/19 07:03:34;;;;;;;25.23;17.23;;;10.20;99.90;;;8.25;88.16;97729.28;5070375;28;20052;-71
2021/05/19 07:06:01;;;;;;;34.28;20.15;;;10.10;99.90;;;8.51;87.58;97735.41;5082269;28;20580;-71
2021/05/19 07:08:28;;;;;;;28.65;17.40;;;10.10;99.90;;;8.66;84.41;97744.41;5073750;28;20126;-71
2021/05/19 07:10:56;;;;;;;27.45;16.67;;;10.10;99.90;;;8.34;85.92;97746.25;5075902;28;20688;-71
2021/05/19 07:13:27;;;;;;;25.20;15.77;;;10.20;99.90;;;8.34;85.18;97743.66;5071558;28;20044;-71
2021/05/19 07:15:55;;;;;;;23.38;14.85;;;10.10;99.90;;;8.46;83.69;97745.03;5089793;28;20040;-71
2021/05/19 07:18:23;;;;;;;26.02;16.95;;;10.10;99.90;;;8.57;84.12;97742.97;5074890;28;20131;-71
2021/05/19 07:20:50;;;;;;;25.50;15.55;;;10.20;99.90;;;8.66;83.28;97740.09;5087146;28;20055;-71
2021/05/19 07:23:17;;;;;;;24.35;13.98;;;10.30;99.90;;;8.94;80.60;97746.94;5069693;28;20102;-71
2021/05/19 07:25:44;;;;;;;23.75;15.13;;;10.50;99.90;;;8.56;82.32;97746.47;5068352;28;20043;-71
2021/05/19 07:28:11;;;;;;;24.98;14.80;;;10.70;99.90;;;9.19;81.37;97737.47;5070004;28;20070;-71
2021/05/19 07:30:39;;;;;;;21.70;12.77;;;10.90;99.90;;;9.50;79.22;97733.78;5080834;28;20036;-71
2021/05/19 07:33:08;;;;;;;20.52;13.27;;;11.10;99.90;;;9.73;78.21;97725.19;5085903;28;20044;-71
2021/05/19 07:35:36;;;;;;;24.42;14.23;;;11.10;99.90;;;10.02;79.23;97726.69;5082219;28;20799;-71
2021/05/19 07:38:06;;;;;;;21.98;14.15;;;11.30;99.90;;;10.73;77.30;97736.09;5065057;28;20064;-71
2021/05/19 07:40:33;;;;;;;23.80;15.05;;;11.70;99.90;;;9.82;76.71;97734.38;5073407;28;20527;-71
2021/05/19 07:43:00;;;;;;;16.88;10.00;;;11.70;99.90;;;9.36;78.12;97743.81;5072610;28;20110;-71
2021/05/19 07:45:27;;;;;;;22.95;14.00;;;11.60;99.90;;;9.57;76.45;97742.19;5068140;28;20032;-71
2021/05/19 07:47:54;;;;;;;14.63;9.52;;;11.60;99.90;;;9.97;75.32;97736.41;5087450;28;20031;-71
2021/05/19 07:50:20;;;;;;;19.38;11.38;;;11.80;99.90;;;9.62;74.28;97737.69;5068806;28;20496;-71
2021/05/19 07:52:46;;;;;;;22.02;12.52;;;12.00;99.90;;;10.64;75.32;97737.28;5077610;28;20051;-71
2021/05/19 07:55:22;;;;;;;17.85;10.55;;;12.00;99.90;;;11.15;73.05;97735.19;5086980;28;20044;-71
2021/05/19 07:58:24;;;;;;;21.33;11.95;;;12.10;99.90;;;11.69;71.17;97734.56;5070407;28;20139;-71
2021/05/19 08:00:52;;;;;;;17.42;10.88;;;12.60;99.90;;;10.52;71.59;97736.03;5071009;28;20041;-71
2021/05/19 08:03:18;;;;;;;23.10;11.23;;;12.20;99.90;;;10.21;72.64;97734.59;5069199;28;20059;-71
2021/05/19 08:05:45;;;;;;;18.95;11.15;;;12.50;99.90;;;10.81;72.67;97734.88;5073176;28;20040;-71
2021/05/19 08:08:11;;;;;;;21.48;11.88;;;13.00;99.90;;;11.79;73.60;97735.00;5079698;28;20089;-71
2021/05/19 08:10:38;;;;;;;21.17;10.88;;;13.60;99.90;;;12.19;70.42;97735.81;5077328;28;20036;-71
2021/05/19 08:13:04;;;;;;;15.73;8.88;;;13.70;99.90;;;12.57;67.53;97738.38;5081444;28;20468;-71
2021/05/19 08:15:30;;;;;;;17.15;9.82;;;14.30;99.90;;;10.40;71.17;97744.28;5072142;28;20093;-73
2021/05/19 08:17:56;;;;;;;17.52;9.85;;;14.00;99.90;;;10.42;71.84;97756.31;5070914;28;20119;-71
2021/05/19 08:20:23;;;;;;;17.00;10.55;;;13.90;99.90;;;10.94;71.11;97745.56;5071515;28;20101;-71
2021/05/19 08:22:51;;;;;;;18.95;10.25;;;13.80;99.90;;;11.32;69.27;97744.91;5067386;28;20047;-72
2021/05/19 08:25:18;;;;;;;16.05;9.35;;;14.20;99.90;;;12.69;66.37;97740.38;5068639;28;20075;-71
2021/05/19 08:27:45;;;;;;;14.38;8.38;;;14.60;99.90;;;12.02;66.52;97746.13;5085427;28;20066;-71
2021/05/19 08:30:15;;;;;;;16.88;9.20;;;14.80;99.90;;;12.17;67.46;97747.19;5078495;28;20112;-72
2021/05/19 08:32:42;;;;;;;13.65;8.35;;;14.80;99.90;;;12.79;66.10;97740.75;5086262;28;20511;-71
2021/05/19 08:35:10;;;;;;;18.98;9.63;;;14.50;99.90;;;12.78;65.81;97736.47;5062335;28;20094;-71
2021/05/19 08:37:37;;;;;;;14.38;8.98;;;14.10;99.90;;;12.03;67.09;97742.63;5070689;28;20400;-71
2021/05/19 08:40:06;;;;;;;15.73;8.40;;;14.30;99.90;;;12.60;64.63;97732.16;5080276;28;20466;-71
2021/05/19 08:42:35;;;;;;;14.02;8.45;;;13.80;99.90;;;13.64;66.46;97728.69;5078487;28;20578;-71
2021/05/19 08:45:06;;;;;;;13.25;7.32;;;14.10;99.90;;;13.90;60.96;97722.09;5075730;28;20036;-71
2021/05/19 08:47:34;;;;;;;12.35;6.25;;;14.80;99.90;;;13.10;61.05;97726.22;5082223;28;20624;-72
2021/05/19 08:50:04;;;;;;;12.07;5.65;;;15.40;99.90;;;13.39;61.52;97719.56;5073490;28;20051;-72
2021/05/19 08:52:34;;;;;;;9.57;5.85;;;15.60;99.90;;;14.66;60.15;97717.03;5070840;28;20056;-71
2021/05/19 08:55:01;;;;;;;10.32;4.70;;;16.20;99.90;;;13.93;59.22;97721.94;5068815;28;20044;-72
2021/05/19 08:57:28;;;;;;;11.38;6.35;;;16.10;99.90;;;12.54;64.10;97725.47;5083399;28;20086;-71
2021/05/19 08:59:55;;;;;;;19.40;8.85;;;15.10;99.90;;;13.19;63.14;97710.94;5084192;28;20043;-71
2021/05/19 09:02:22;;;;;;;21.85;8.85;;;14.30;99.90;;;12.94;63.72;97720.94;5076360;28;20041;-71
2021/05/19 09:04:59;;;;;;;11.75;6.60;;;14.20;99.90;;;12.84;61.74;97717.94;5078770;28;20261;-71
2021/05/19 09:07:26;;;;;;;10.93;5.18;;;14.50;99.90;;;13.38;62.11;97708.25;5079375;28;20412;-71
2021/05/19 09:09:53;;;;;;;10.02;5.10;;;15.10;99.90;;;13.04;59.05;97716.09;5086994;28;20496;-71
2021/05/19 09:12:21;;;;;;;11.77;6.22;;;15.80;99.90;;;14.25;59.67;97712.34;5085092;28;20426;-71
2021/05/19 09:14:56;;;;;;;10.57;5.68;;;16.50;99.90;;;13.50;60.02;97708.56;5080102;28;21407;-71
2021/05/19 09:17:27;;;;;;;8.27;4.05;;;16.30;99.90;;;14.27;58.66;97707.88;5083363;28;20108;-72
2021/05/19 09:20:06;;;;;;;8.32;2.50;;;16.50;99.90;;;14.01;57.12;97709.31;5081962;28;20468;-71
2021/05/19 09:22:38;;;;;;;5.57;2.38;;;16.90;99.90;;;13.15;56.99;97713.78;5086831;28;20078;-71
2021/05/19 09:25:15;;;;;;;9.25;2.33;;;16.50;99.90;;;12.45;57.78;97712.91;5074071;28;20052;-70
2021/05/19 09:27:45;;;;;;;3.95;1.63;;;16.30;99.90;;;13.81;55.35;97692.13;5084794;28;20401;-69
2021/05/19 09:30:14;;;;;;;5.53;1.48;;;16.50;99.90;;;13.16;55.14;97695.47;5074325;28;20045;-72
2021/05/19 09:32:43;;;;;;;4.80;1.38;;;16.40;99.90;;;13.82;53.00;97691.19;5069453;28;20097;-71
2021/05/19 09:35:12;;;;;;;4.40;1.05;;;16.00;99.90;;;14.27;51.79;97687.00;5079719;28;20044;-71
2021/05/19 09:37:39;;;;;;;5.72;0.90;;;15.90;99.90;;;14.57;50.46;97684.47;5077666;28;20047;-71
2021/05/19 09:40:10;;;;;;;4.18;0.80;;;16.20;99.90;;;15.48;51.34;97687.81;5081589;28;20492;-71
2021/05/19 09:42:36;;;;;;;3.72;0.90;;;16.50;99.90;;;14.97;49.32;97681.31;5081793;28;20106;-71
2021/05/19 09:45:24;;;;;;;3.50;0.80;;;16.70;99.90;;;14.14;52.20;97686.84;5082284;28;20066;-70
2021/05/19 09:47:54;;;;;;;6.10;1.00;;;16.80;99.90;;;16.02;48.36;97670.59;5088876;28;20143;-70
2021/05/19 09:50:34;;;;;;;4.63;0.90;;;16.80;99.90;;;16.62;46.46;97664.13;5084362;28;20058;-70
2021/05/19 09:53:11;;;;;;;7.05;1.17;;;17.50;99.90;;;16.68;47.84;97661.94;5077679;28;20060;-70
2021/05/19 09:56:00;;;;;;;6.07;1.20;;;18.40;99.90;;;15.70;46.55;97668.19;5063754;28;20508;-70
2021/05/19 09:58:40;;;;;;;3.58;0.95;;;18.30;99.90;;;14.43;48.40;97659.09;5072989;28;20048;-70
2021/05/19 10:01:08;;;;;;;6.57;1.08;;;17.70;99.90;;;14.82;49.49;97652.56;5075535;28;20048;-70
2021/05/19 10:03:37;;;;;;;5.20;0.70;;;17.30;99.90;;;15.64;48.05;97660.72;5082370;28;20123;-70
2021/05/19 10:06:23;;;;;;;4.82;1.10;;;17.20;99.90;;;15.23;48.23;97659.69;5074726;28;20104;-70
2021/05/19 10:08:51;;;;;;;6.95;1.20;;;17.10;99.90;;;14.95;49.08;97654.44;5072330;28;20044;-70
2021/05/19 10:11:18;;;;;;;4.63;1.33;;;16.60;99.90;;;15.21;49.03;97653.72;5080676;28;20121;-70
2021/05/19 10:13:45;;;;;;;5.85;1.55;;;16.60;99.90;;;14.01;49.49;97664.97;5073136;28;20054;-71
2021/05/19 10:16:19;;;;;;;7.90;1.85;;;16.50;99.90;;;14.40;48.14;97648.00;5080776;28;20229;-70
2021/05/19 10:18:52;;;;;;;5.25;1.48;;;16.50;99.90;;;14.05;48.19;97655.16;5069917;28;20040;-70
2021/05/19 10:21:31;;;;;;;4.82;1.23;;;16.40;99.90;;;14.82;52.66;97652.56;5058421;28;20492;-70
2021/05/19 10:24:06;;;;;;;3.67;1.27;;;16.30;99.90;;;15.36;49.70;97648.50;5069368;28;20037;-71
2021/05/19 10:27:07;;;;;;;5.30;1.58;;;16.50;99.90;;;14.95;48.43;97644.81;5081490;28;20068;-70